Latest Weather Observations for Inverell RS

IDN60801

Issued at 1:02 pm EST Sunday 30 April 2017 (issued every 30 minutes, with the page automatically refreshed every 10 minutes)

About weather observations | Map of weather stations | Latest weather observations for NSW | Other Formats
Station Details ID: 056018 Name: INVERELL RESEARCH CENTRE Lat: -29.78 Lon: 151.08 Height: 664.0 m
Data from the previous 72 hours. | See also: Recent months at Inverell RS
Date/Time
EST
Temp
°C
App
Temp
°C
Dew
Point
°C
Rel
Hum
%
Delta-T
°C
Wind Press
QNH
hPa
Press
MSL
hPa
Rain since
9am
mm
Dir  Spd
km/h
Gust
km/h
Spd
kts
Gust
kts
30/01:00pm 20.8 18.3 6.6 39 7.4 NE 9 17 5 9 1020.4 - 0.0
30/12:30pm 21.2 18.9 7.5 41 7.3 NE 9 15 5 8 1020.9 - 0.0
30/12:00pm 20.4 18.4 8.8 47 6.3 NNE 9 15 5 8 1021.2 1019.6 0.0
30/11:30am 20.1 18.5 8.6 47 6.2 ENE 7 13 4 7 1021.6 - 0.0
30/11:00am 19.0 16.7 9.0 52 5.4 E 11 17 6 9 1022.3 - 0.0
30/10:30am 18.0 15.9 8.1 52 5.2 E 9 13 5 7 1022.6 - 0.0
30/10:00am 17.1 14.8 7.4 53 5.0 E 9 15 5 8 1022.7 - 0.0
30/09:30am 15.8 13.5 7.4 57 4.3 E 9 13 5 7 1022.8 - 0.0
30/09:00am 14.3 12.7 8.7 69 2.9 E 7 9 4 5 1022.8 1021.2 0.0
30/08:30am 14.0 12.2 7.0 62 3.5 E 6 7 3 4 1022.8 - 0.0
30/08:00am 12.5 10.7 8.0 74 2.3 ESE 7 9 4 5 1022.5 - 0.0
30/07:30am 10.4 8.8 7.8 84 1.3 S 6 9 3 5 1022.3 - 0.0
30/07:00am 8.0 5.4 6.1 88 0.9 SW 9 13 5 7 1021.9 - 0.0
30/06:30am 7.2 4.5 5.5 89 0.8 SSW 9 11 5 6 1021.3 - 0.0
30/06:00am 5.6 3.1 4.7 94 0.4 S 7 11 4 6 1021.0 1019.4 0.0
30/05:30am 5.3 3.3 4.6 95 0.3 S 4 9 2 5 1021.0 - 0.0
30/05:00am 6.3 3.8 4.5 88 0.8 S 7 11 4 6 1020.6 - 0.0
30/04:30am 8.9 5.7 5.0 76 1.8 S 11 15 6 8 1020.4 - 0.0
30/04:00am 8.6 5.7 4.4 75 1.9 S 9 13 5 7 1020.4 - 0.0
30/03:30am 7.7 4.8 4.6 81 1.4 S 9 13 5 7 1020.3 - 0.0
30/03:00am 7.0 5.8 4.8 86 1.0 CALM 0 0 0 0 1020.2 1018.7 0.0
30/02:30am 6.8 5.7 5.0 88 0.8 CALM 0 0 0 0 1020.2 - 0.0
30/02:00am 7.9 6.4 5.1 82 1.3 N 2 7 1 4 1020.6 - 0.0
30/01:30am 9.3 6.8 4.8 73 2.1 SW 7 9 4 5 1020.8 - 0.0
30/01:00am 11.7 8.4 4.4 61 3.4 SSW 11 15 6 8 1020.8 - 0.0
30/12:30am 11.2 8.2 4.3 62 3.2 S 9 15 5 8 1020.8 - 0.0
30/12:00am 10.8 8.0 5.1 68 2.7 SSW 9 11 5 6 1020.8 1019.3 0.0
 
Date/Time
EST
Temp
°C
App
Temp
°C
Dew
Point
°C
Rel
Hum
%
Delta-T
°C
Wind Press
QNH
hPa
Press
MSL
hPa
Rain since
9am
mm
Dir  Spd
km/h
Gust
km/h
Spd
kts
Gust
kts
29/11:30pm 10.9 8.1 5.2 68 2.7 S 9 11 5 6 1021.0 - 0.0
29/11:00pm 11.0 8.2 5.3 68 2.7 SSE 9 11 5 6 1021.2 - 0.0
29/10:30pm 11.1 8.9 6.4 73 2.3 SSE 7 11 4 6 1021.4 - 0.0
29/10:00pm 10.7 8.8 6.8 77 1.9 SE 6 9 3 5 1021.4 - 0.0
29/09:30pm 10.3 9.2 7.0 80 1.6 W 2 7 1 4 1021.4 - 0.0
29/09:00pm 13.2 10.8 6.8 65 3.2 SW 9 13 5 7 1021.3 1019.7 0.0
29/08:30pm 13.7 11.1 6.2 60 3.7 SW 9 11 5 6 1021.2 - 0.0
29/08:00pm 13.7 11.1 6.0 59 3.8 SW 9 11 5 6 1021.2 - 0.0
29/07:30pm 14.6 13.2 5.4 54 4.5 SW 2 9 1 5 1021.0 - 0.0
29/07:00pm 15.2 13.1 5.9 54 4.6 WNW 6 9 3 5 1020.9 - 0.0
29/06:30pm 15.4 12.9 6.4 55 4.5 WNW 9 13 5 7 1020.6 - 0.0
29/06:00pm 15.8 13.3 6.7 54 4.6 W 9 13 5 7 1020.4 1018.9 0.0
29/05:30pm 16.2 13.8 7.0 54 4.7 W 9 13 5 7 1020.3 - 0.0
29/05:00pm 17.4 15.2 6.4 48 5.6 W 7 11 4 6 1020.0 - 0.0
29/04:30pm 19.1 16.9 6.0 42 6.7 W 7 11 4 6 1019.7 - 0.0
29/04:00pm 19.8 17.5 5.9 40 7.1 WSW 7 13 4 7 1019.5 - 0.0
29/03:30pm 19.8 17.7 6.5 42 6.9 S 7 15 4 8 1019.4 - 0.0
29/03:00pm 19.8 17.2 6.2 41 7.0 SW 9 15 5 8 1019.5 1017.9 0.0
29/02:30pm 20.1 17.2 6.6 41 7.0 SSW 11 17 6 9 1019.7 - 0.0
29/02:00pm 20.3 17.3 5.9 39 7.4 S 11 24 6 13 1019.8 - 0.0
29/01:30pm 20.3 17.1 5.1 37 7.7 SSW 11 17 6 9 1019.8 - 0.0
29/01:00pm 19.8 16.2 3.1 33 8.1 SSW 11 24 6 13 1020.1 - 0.0
29/12:30pm 19.5 15.8 4.4 37 7.5 SSW 13 20 7 11 1020.8 - 0.0
29/12:00pm 19.4 15.4 3.0 33 7.9 WSW 13 22 7 12 1021.2 1019.6 0.0
29/11:30am 19.3 16.6 5.5 40 7.0 SW 9 19 5 10 1021.5 - 0.0
29/11:00am 18.1 15.2 4.5 40 6.7 SW 9 17 5 9 1021.8 - 0.0
29/10:30am 17.8 14.9 4.9 42 6.4 SSE 9 13 5 7 1022.2 - 0.0
29/10:00am 16.9 14.4 6.7 51 5.2 S 9 13 5 7 1022.3 - 0.0
29/09:30am 15.8 12.9 6.7 54 4.6 S 11 15 6 8 1022.4 - 0.0
29/09:00am 14.5 11.6 6.5 58 4.0 S 11 15 6 8 1022.5 1020.9 0.0
29/08:30am 13.3 10.4 6.4 63 3.4 S 11 15 6 8 1022.4 - 0.0
29/08:00am 12.3 9.3 6.2 66 3.0 SSE 11 15 6 8 1021.9 - 0.0
29/07:30am 11.0 9.0 6.9 76 2.0 SSW 7 9 4 5 1021.6 - 0.0
29/07:00am 9.4 6.6 6.9 84 1.2 SW 11 15 6 8 1021.3 - 0.0
29/06:30am 8.2 5.3 6.7 90 0.7 SW 11 15 6 8 1021.0 - 0.0
29/06:00am 8.3 5.6 7.3 93 0.5 SW 11 17 6 9 1020.9 1019.2 0.0
29/05:30am 8.2 5.8 7.2 93 0.5 SSW 9 11 5 6 1020.6 - 0.0
29/05:00am 8.6 5.6 7.6 93 0.5 SW 13 17 7 9 1020.3 - 0.0
29/04:30am 9.1 6.1 7.5 90 0.8 SW 13 17 7 9 1020.1 - 0.0
29/04:00am 8.5 6.2 7.3 92 0.6 SSW 9 13 5 7 1020.0 - 0.0
29/03:30am 8.9 6.2 7.5 91 0.7 SSW 11 13 6 7 1019.9 - 0.0
29/03:00am 7.9 5.4 6.6 91 0.6 SW 9 13 5 7 1020.0 1018.5 0.0
29/02:30am 7.7 5.2 6.4 91 0.6 SW 9 11 5 6 1020.1 - 0.0
29/02:00am 9.2 6.8 6.9 85 1.1 SSW 9 11 5 6 1020.2 - 0.0
29/01:30am 9.6 7.2 6.9 83 1.3 SSW 9 11 5 6 1020.7 - 0.0
29/01:00am 9.9 7.5 7.0 82 1.4 S 9 13 5 7 1020.6 - 0.0
29/12:30am 9.7 7.3 7.0 83 1.3 S 9 11 5 6 1020.6 - 0.0
29/12:00am 10.2 7.8 7.1 81 1.5 SSE 9 11 5 6 1020.8 1019.2 0.0
 
Date/Time
EST
Temp
°C
App
Temp
°C
Dew
Point
°C
Rel
Hum
%
Delta-T
°C
Wind Press
QNH
hPa
Press
MSL
hPa
Rain since
9am
mm
Dir  Spd
km/h
Gust
km/h
Spd
kts
Gust
kts
28/11:30pm 11.5 9.2 7.3 75 2.1 S 9 11 5 6 1020.9 - 0.0
28/11:00pm 12.2 9.5 7.2 71 2.5 S 11 15 6 8 1021.1 - 0.0
28/10:30pm 12.6 9.8 7.0 68 2.8 S 11 13 6 7 1021.2 - 0.0
28/10:00pm 12.4 10.0 7.2 70 2.6 S 9 13 5 7 1021.2 - 0.0
28/09:30pm 12.5 9.8 7.5 71 2.5 SSW 11 15 6 8 1021.4 - 0.0
28/09:00pm 12.8 10.6 7.7 71 2.6 S 9 13 5 7 1021.3 1019.7 0.0
28/08:30pm 13.2 11.0 7.7 69 2.8 SSW 9 13 5 7 1021.2 - 0.0
28/08:00pm 13.1 10.9 7.8 70 2.7 S 9 11 5 6 1020.9 - 0.0
28/07:30pm 13.1 11.5 7.8 70 2.7 SSE 6 7 3 4 1020.8 - 0.0
28/07:00pm 13.7 11.6 8.1 69 2.9 SSE 9 11 5 6 1020.6 - 0.0
28/06:30pm 14.1 12.5 8.7 70 2.8 SE 7 9 4 5 1020.2 - 0.0
28/06:00pm 14.7 13.2 8.4 66 3.3 SE 6 9 3 5 1019.9 1018.3 0.0
28/05:30pm 15.8 13.8 8.6 62 3.8 ESE 9 13 5 7 1019.5 - 0.0
28/05:00pm 17.5 14.7 8.4 55 4.8 E 13 19 7 10 1019.1 - 0.0
28/04:30pm 18.9 16.6 8.9 52 5.4 SE 11 19 6 10 1019.0 - 0.0
28/04:00pm 19.4 16.9 8.4 49 5.9 SSE 11 15 6 8 1018.7 - 0.0
28/03:30pm 19.1 16.7 8.5 50 5.7 S 11 19 6 10 1018.5 - 0.0
28/03:00pm 19.3 16.9 8.5 49 5.8 S 11 19 6 10 1018.5 1016.9 0.0
28/02:30pm 19.1 16.5 7.7 47 6.0 SSE 11 19 6 10 1018.4 - 0.0
28/02:00pm 19.7 17.1 7.8 46 6.3 SSE 11 22 6 12 1018.2 - 0.0
28/01:30pm 19.4 16.5 8.1 48 6.0 S 13 24 7 13 1018.3 - 0.0
28/01:00pm 19.4 16.5 8.1 48 6.0 SSE 13 26 7 14 1018.4 - 0.0
28/12:30pm 18.5 15.5 7.6 49 5.7 SE 13 22 7 12 1018.8 - 0.0
28/12:00pm 18.0 13.7 7.9 51 5.3 SSE 20 28 11 15 1019.4 1017.8 0.0
28/11:30am 17.5 13.7 7.7 52 5.1 ESE 17 26 9 14 1019.7 - 0.0
28/11:00am 16.9 12.6 7.2 52 5.0 SE 19 32 10 17 1019.9 - 0.0
28/10:30am 16.5 12.3 7.4 55 4.7 SE 19 28 10 15 1020.2 - 0.0
28/10:00am 15.9 12.6 8.0 59 4.1 S 15 22 8 12 1020.0 - 0.0
28/09:30am 15.1 12.1 7.7 61 3.8 SSE 13 22 7 12 1019.8 - 0.0
28/09:00am 13.8 10.8 7.5 66 3.2 SSE 13 24 7 13 1019.7 1018.0 0.0
28/08:30am 12.0 8.8 7.0 71 2.5 SSW 13 22 7 12 1019.4 - 0.0
28/08:00am 11.4 9.0 7.2 75 2.1 SSE 9 15 5 8 1018.8 - 0.0
28/07:30am 9.7 6.6 5.7 76 1.9 S 11 17 6 9 1018.8 - 0.0
28/07:00am 8.4 5.3 5.4 81 1.4 S 11 15 6 8 1018.5 - 0.0
28/06:30am 6.6 4.1 4.8 88 0.8 S 7 11 4 6 1018.2 - 0.0
28/06:00am 6.5 2.8 4.7 88 0.8 SW 13 17 7 9 1018.2 1016.6 0.0
28/05:30am 6.4 2.7 4.6 88 0.8 SW 13 20 7 11 1018.1 - 0.0
28/05:00am 6.3 2.7 5.2 93 0.5 SSW 13 19 7 10 1017.8 - 0.0
28/04:30am 6.1 2.5 5.2 94 0.4 SW 13 17 7 9 1017.5 - 0.0
28/04:00am 6.2 1.6 5.5 95 0.3 SW 19 24 10 13 1017.0 - 0.0
28/03:30am 6.0 1.7 5.1 94 0.4 SW 17 24 9 13 1016.9 - 0.0
28/03:00am 6.3 1.9 5.0 91 0.6 SW 17 22 9 12 1016.9 1015.4 0.0
28/02:30am 6.4 2.0 4.9 90 0.7 SW 17 22 9 12 1017.1 - 0.0
28/02:00am 6.4 2.4 4.9 90 0.7 SW 15 19 8 10 1017.5 - 0.0
28/01:30am 6.5 2.9 5.0 90 0.7 WSW 13 19 7 10 1017.9 - 0.0
28/01:00am 6.9 3.4 5.6 91 0.6 SW 13 19 7 10 1018.1 - 0.0
28/12:30am 7.0 3.5 5.5 90 0.7 WSW 13 17 7 9 1018.1 - 0.0
28/12:00am 6.8 3.9 4.8 87 0.9 SW 9 15 5 8 1017.9 1016.3 0.0
 
Date/Time
EST
Temp
°C
App
Temp
°C
Dew
Point
°C
Rel
Hum
%
Delta-T
°C
Wind Press
QNH
hPa
Press
MSL
hPa
Rain since
9am
mm
Dir  Spd
km/h
Gust
km/h
Spd
kts
Gust
kts
27/11:30pm 6.9 4.0 4.7 86 1.0 SW 9 13 5 7 1018.1 - 0.0
27/11:00pm 6.9 4.0 4.7 86 1.0 SW 9 13 5 7 1018.4 - 0.0
27/10:30pm 7.6 4.7 4.5 81 1.4 SW 9 15 5 8 1018.7 - 0.0
27/10:00pm 7.4 4.8 4.3 81 1.4 SW 7 9 4 5 1018.7 - 0.0
27/09:30pm 7.5 4.6 4.4 81 1.4 WSW 9 11 5 6 1018.5 - 0.0
27/09:00pm 7.9 5.0 4.4 78 1.6 S 9 11 5 6 1018.4 1016.8 0.0
27/08:30pm 8.7 5.8 4.8 76 1.8 SW 9 13 5 7 1018.3 - 0.0
27/08:00pm 9.0 6.1 4.7 74 2.0 SSW 9 15 5 8 1018.1 - 0.0
27/07:30pm 9.3 7.0 5.0 74 2.0 S 6 11 3 6 1017.9 - 0.0
27/07:00pm 9.7 6.9 5.2 73 2.1 SSW 9 15 5 8 1017.5 - 0.0
27/06:30pm 10.5 7.7 5.0 69 2.6 S 9 15 5 8 1017.1 - 0.0
27/06:00pm 11.2 10.4 6.3 72 2.4 CALM 0 9 0 5 1016.7 1015.1 0.0
27/05:30pm 11.6 9.4 5.1 64 3.1 W 6 7 3 4 1016.4 - 0.0
27/05:00pm 11.9 9.4 5.0 62 3.3 SSW 7 11 4 6 1016.3 - 0.0
27/04:30pm 12.1 10.7 5.5 64 3.2 SSW 2 7 1 4 1016.0 - 0.0
27/04:00pm 12.1 9.3 5.0 62 3.4 S 9 15 5 8 1016.0 - 0.0
27/03:30pm 12.4 9.6 5.1 61 3.5 S 9 13 5 7 1015.6 - 0.0
27/03:00pm 12.6 10.3 4.6 58 3.8 SW 6 9 3 5 1015.4 1013.8 0.0
27/02:30pm 12.6 9.5 3.8 55 4.1 SW 9 15 5 8 1015.2 - 0.0
27/02:00pm 12.4 9.4 4.3 57 3.8 S 9 13 5 7 1015.1 - 0.0
27/01:30pm 12.1 9.0 3.7 56 3.9 SSW 9 15 5 8 1015.2 - 0.0

Other Formats:

Comma delimited format used in spreadsheet applications
http://www.bom.gov.au/fwo/IDN60801/IDN60801.94541.axf

JavaScript Object Notation format (JSON) in row-major order
http://www.bom.gov.au/fwo/IDN60801/IDN60801.94541.json